createdAt,value
2023-03-20T00:01:00.711Z,100153.31
2023-03-20T00:06:02.151Z,100146.19
2023-03-20T00:11:03.616Z,100142.75
2023-03-20T00:16:05.922Z,100137.09
2023-03-20T00:21:17.242Z,100144.22
2023-03-20T00:26:19.782Z,100133.41
2023-03-20T00:31:25.698Z,100135.75
2023-03-20T00:36:28.186Z,100135.03
2023-03-20T00:41:39.638Z,100138.69
2023-03-20T00:46:41.546Z,100125.22
2023-03-20T00:51:42.986Z,100128.41
2023-03-20T00:57:03.900Z,100132.81
2023-03-20T01:02:06.234Z,100128.50
2023-03-20T01:07:12.485Z,100123.97
2023-03-20T01:12:15.325Z,100115.13
2023-03-20T01:17:22.630Z,100125.31
2023-03-20T01:22:24.085Z,100126.69
2023-03-20T01:27:25.644Z,100133.78
2023-03-20T01:32:27.158Z,100131.09
2023-03-20T01:37:28.642Z,100137.22
2023-03-20T01:42:30.427Z,100131.81
2023-03-20T01:47:31.966Z,100136.97
2023-03-20T01:52:33.451Z,100137.84
2023-03-20T01:57:34.910Z,100137.72
2023-03-20T02:02:38.705Z,100129.75
2023-03-20T02:07:40.994Z,100137.47
2023-03-20T02:12:44.038Z,100135.25
2023-03-20T02:17:45.874Z,100132.78
2023-03-20T02:23:24.427Z,100128.84
2023-03-20T02:28:59.838Z,100123.72
2023-03-20T02:34:29.658Z,100135.09
2023-03-20T02:39:58.707Z,100132.50
2023-03-20T02:45:16.707Z,100134.25
2023-03-20T02:50:23.971Z,100126.63
2023-03-20T02:55:35.607Z,100125.06
2023-03-20T03:00:54.650Z,100133.75
2023-03-20T03:06:00.399Z,100122.34
2023-03-20T03:11:06.425Z,100123.69
2023-03-20T03:16:15.724Z,100125.25
2023-03-20T03:21:18.659Z,100124.91
2023-03-20T03:26:27.674Z,100121.00
2023-03-20T03:31:30.980Z,100113.78
2023-03-20T03:36:44.687Z,100119.91
2023-03-20T03:42:03.686Z,100116.84
2023-03-20T03:47:21.500Z,100118.06
2023-03-20T03:52:25.440Z,100113.91
2023-03-20T03:57:36.546Z,100113.53
2023-03-20T04:02:38.629Z,100121.28
2023-03-20T04:07:40.332Z,100122.97
2023-03-20T04:12:44.234Z,100122.97
2023-03-20T04:17:46.114Z,100131.47
2023-03-20T04:22:47.606Z,100127.16
2023-03-20T04:27:49.330Z,100121.50
2023-03-20T04:32:50.789Z,100120.41
2023-03-20T04:37:52.288Z,100129.84
2023-03-20T04:42:53.702Z,100130.09
2023-03-20T04:47:55.327Z,100128.75
2023-03-20T04:52:56.757Z,100132.94
2023-03-20T04:57:58.200Z,100138.56
2023-03-20T05:03:00.447Z,100135.63
2023-03-20T05:08:01.882Z,100138.91
2023-03-20T05:13:03.302Z,100141.88
2023-03-20T05:18:04.757Z,100135.88
2023-03-20T05:23:06.593Z,100135.50
2023-03-20T05:28:08.160Z,100138.69
2023-03-20T05:33:09.601Z,100147.31
2023-03-20T05:38:11.184Z,100152.47
2023-03-20T05:43:12.607Z,100164.72
2023-03-20T05:48:14.023Z,100166.44
2023-03-20T05:53:16.350Z,100164.97
2023-03-20T05:58:17.823Z,100163.75
2023-03-20T06:03:19.714Z,100166.69
2023-03-20T06:08:21.162Z,100158.81
2023-03-20T06:13:22.600Z,100170.63
2023-03-20T06:18:24.040Z,100166.19
2023-03-20T06:23:25.465Z,100180.44
2023-03-20T06:28:26.881Z,100179.94
2023-03-20T06:33:28.931Z,100184.13
2023-03-20T06:38:30.697Z,100188.28
2023-03-20T06:43:32.127Z,100197.03
2023-03-20T06:48:33.582Z,100192.34
2023-03-20T06:53:35.213Z,100192.34
2023-03-20T06:58:36.628Z,100196.16
2023-03-20T07:03:38.061Z,100189.59
2023-03-20T07:08:40.042Z,100199.56
2023-03-20T07:13:41.687Z,100195.78
2023-03-20T07:18:43.130Z,100196.84
2023-03-20T07:23:44.965Z,100198.09
2023-03-20T07:28:46.383Z,100200.75
2023-03-20T07:33:47.984Z,100201.00
2023-03-20T07:38:49.438Z,100199.31
2023-03-20T07:43:51.106Z,100203.97
2023-03-20T07:48:52.666Z,100205.16
2023-03-20T07:53:54.110Z,100205.84
2023-03-20T07:58:55.552Z,100208.78
2023-03-20T08:03:57.166Z,100215.44
2023-03-20T08:08:58.649Z,100209.56
2023-03-20T08:14:00.112Z,100223.56
2023-03-20T08:19:02.838Z,100215.50
2023-03-20T08:24:04.579Z,100223.97
2023-03-20T08:29:06.249Z,100223.59
2023-03-20T08:34:07.756Z,100224.22
2023-03-20T08:39:09.647Z,100234.41
2023-03-20T08:44:12.019Z,100235.69
2023-03-20T08:49:13.805Z,100238.88
2023-03-20T08:54:18.273Z,100236.16
2023-03-20T08:59:19.748Z,100245.75
2023-03-20T09:04:21.195Z,100243.44
2023-03-20T09:09:29.215Z,100246.34
2023-03-20T09:14:30.986Z,100247.50
2023-03-20T09:19:32.433Z,100238.38
2023-03-20T09:24:33.907Z,100250.94
2023-03-20T09:29:35.714Z,100254.53
2023-03-20T09:34:37.196Z,100234.56
2023-03-20T09:39:38.611Z,100235.44
2023-03-20T09:45:08.384Z,100229.66
2023-03-20T09:50:25.945Z,100223.50
2023-03-20T09:55:36.359Z,100219.72
2023-03-20T10:00:40.412Z,100224.09
2023-03-20T10:05:49.798Z,100235.25
2023-03-20T10:11:16.227Z,100227.97
2023-03-20T10:16:35.782Z,100216.97
2023-03-20T10:21:44.259Z,100222.25
2023-03-20T10:26:48.845Z,100214.19
2023-03-20T10:32:13.431Z,100205.66
2023-03-20T10:37:27.037Z,100204.59
2023-03-20T10:42:33.721Z,100207.78
2023-03-20T10:47:39.395Z,100198.47
2023-03-20T10:52:42.169Z,100195.81
2023-03-20T10:57:49.256Z,100186.94
2023-03-20T11:02:50.939Z,100182.66
2023-03-20T11:08:02.079Z,100183.47
2023-03-20T11:13:38.293Z,100184.31
2023-03-20T11:18:42.080Z,100179.03
2023-03-20T11:23:43.667Z,100184.53
2023-03-20T11:28:58.729Z,100187.47
2023-03-20T11:34:15.423Z,100182.00
2023-03-20T11:39:34.133Z,100171.75
2023-03-20T11:44:36.823Z,100177.72
2023-03-20T11:49:52.857Z,100183.00
2023-03-20T11:54:59.125Z,100176.34
2023-03-20T12:00:07.217Z,100169.31
2023-03-20T12:05:28.909Z,100167.69
2023-03-20T12:10:37.187Z,100160.41
2023-03-20T12:15:43.508Z,100154.66
2023-03-20T12:21:02.032Z,100146.88
2023-03-20T12:26:15.678Z,100146.03
2023-03-20T12:31:30.745Z,100135.84
2023-03-20T12:36:35.937Z,100132.25
2023-03-20T12:41:57.467Z,100115.41
2023-03-20T12:47:39.925Z,100120.44
2023-03-20T12:53:11.719Z,100111.94
2023-03-20T12:58:43.970Z,100100.16
2023-03-20T13:04:03.919Z,100100.97
2023-03-20T13:09:16.211Z,100103.53
2023-03-20T13:14:24.429Z,100094.47
2023-03-20T13:19:37.981Z,100084.34
2023-03-20T13:24:50.618Z,100080.44
2023-03-20T13:30:34.568Z,100101.59
2023-03-20T13:35:51.103Z,100106.28
2023-03-20T13:41:00.718Z,100107.25
2023-03-20T13:46:09.847Z,100095.09
2023-03-20T13:51:29.147Z,100093.28
2023-03-20T13:57:08.188Z,100097.97
2023-03-20T14:02:38.393Z,100079.31
2023-03-20T14:07:44.535Z,100089.16
2023-03-20T14:12:49.465Z,100086.97
2023-03-20T14:17:52.181Z,100083.72
2023-03-20T14:22:53.644Z,100094.16
2023-03-20T14:28:13.522Z,100091.19
2023-03-20T14:33:14.970Z,100074.97
2023-03-20T14:38:35.942Z,100109.66
2023-03-20T14:43:52.660Z,100106.16
2023-03-20T14:48:55.985Z,100101.63
2023-03-20T14:54:24.287Z,100106.81
2023-03-20T14:59:25.807Z,100096.66
2023-03-20T15:04:29.036Z,100109.78
2023-03-20T15:09:34.899Z,100100.53
2023-03-20T15:14:43.642Z,100098.00
2023-03-20T15:19:45.157Z,100085.78
2023-03-20T15:24:55.712Z,100093.38
2023-03-20T15:30:00.261Z,100095.09
2023-03-20T15:35:04.841Z,100102.09
2023-03-20T15:40:49.214Z,100113.50
2023-03-20T15:46:14.109Z,100119.94
2023-03-20T15:51:21.407Z,100130.06
2023-03-20T15:56:27.592Z,100138.88
2023-03-20T16:01:31.985Z,100146.47
2023-03-20T16:06:33.480Z,100146.56
2023-03-20T16:11:38.306Z,100144.81
2023-03-20T16:16:40.481Z,100156.19
2023-03-20T16:21:47.652Z,100147.50
2023-03-20T16:26:51.575Z,100153.63
2023-03-20T16:32:05.937Z,100151.41
2023-03-20T16:37:22.835Z,100160.16
2023-03-20T16:42:28.042Z,100161.75
2023-03-20T16:47:38.398Z,100171.47
2023-03-20T16:52:47.164Z,100171.06
2023-03-20T16:57:51.452Z,100174.78
2023-03-20T17:03:01.353Z,100171.31
2023-03-20T17:08:12.472Z,100180.03
2023-03-20T17:13:15.164Z,100177.75
2023-03-20T17:18:16.627Z,100175.31
2023-03-20T17:23:21.951Z,100179.03
2023-03-20T17:28:31.260Z,100168.25
2023-03-20T17:33:33.713Z,100175.03
2023-03-20T17:38:35.803Z,100181.94
2023-03-20T17:43:37.293Z,100187.38
2023-03-20T17:48:39.212Z,100184.75
2023-03-20T17:53:40.877Z,100193.44
2023-03-20T17:58:44.715Z,100209.69
2023-03-20T18:03:46.192Z,100207.50
2023-03-20T18:08:47.647Z,100204.19
2023-03-20T18:13:49.254Z,100209.28
2023-03-20T18:18:51.493Z,100215.22
2023-03-20T18:23:52.961Z,100209.47
2023-03-20T18:28:55.606Z,100214.09
2023-03-20T18:33:57.178Z,100204.63
2023-03-20T18:38:58.900Z,100208.41
2023-03-20T18:44:00.385Z,100201.91
2023-03-20T18:49:01.837Z,100198.19
2023-03-20T18:54:03.395Z,100205.44
2023-03-20T18:59:07.772Z,100190.88
2023-03-20T19:04:09.406Z,100199.34
2023-03-20T19:09:12.159Z,100199.31
2023-03-20T19:14:14.159Z,100190.34
2023-03-20T19:19:15.935Z,100195.53
2023-03-20T19:24:21.460Z,100196.00
2023-03-20T19:29:23.043Z,100198.91
2023-03-20T19:35:14.504Z,100194.75
2023-03-20T19:39:46.075Z,100201.75
2023-03-20T19:44:47.523Z,100196.66
2023-03-20T19:49:48.961Z,100202.53
2023-03-20T19:55:02.106Z,100205.72
2023-03-20T20:00:55.768Z,100209.56
2023-03-20T20:05:31.137Z,100205.16
2023-03-20T20:10:41.033Z,100215.06
2023-03-20T20:15:42.457Z,100218.41
2023-03-20T20:21:28.520Z,100221.56
2023-03-20T20:26:09.457Z,100228.91
2023-03-20T20:31:10.976Z,100219.69
2023-03-20T20:37:17.377Z,100224.88
2023-03-20T20:41:34.697Z,100225.09
2023-03-20T20:46:36.122Z,100216.25
2023-03-20T20:51:37.733Z,100215.03
2023-03-20T20:56:40.886Z,100212.31
2023-03-20T21:01:42.619Z,100202.25
2023-03-20T21:07:08.593Z,100212.81
2023-03-20T21:12:06.208Z,100216.28
2023-03-20T21:17:09.631Z,100205.13
2023-03-20T21:22:13.317Z,100207.44
2023-03-20T21:27:15.457Z,100211.50
2023-03-20T21:32:19.820Z,100207.22
2023-03-20T21:38:22.968Z,100219.47
2023-03-20T21:42:42.874Z,100210.88
2023-03-20T21:48:33.417Z,100213.81
2023-03-20T21:53:56.894Z,100207.91
2023-03-20T22:04:45.084Z,100200.56
2023-03-20T22:15:20.100Z,100200.94
2023-03-20T22:25:53.130Z,100194.41
2023-03-20T22:37:01.415Z,100200.56
2023-03-20T22:46:46.364Z,100203.00
2023-03-20T22:52:07.806Z,100195.41
2023-03-20T22:57:09.866Z,100191.63
2023-03-20T23:02:11.525Z,100197.63
2023-03-20T23:07:13.056Z,100188.66
2023-03-20T23:12:14.516Z,100195.44
2023-03-20T23:17:15.983Z,100181.91
2023-03-20T23:22:17.447Z,100183.88
2023-03-20T23:27:19.922Z,100189.78
2023-03-20T23:32:21.377Z,100185.59
2023-03-20T23:37:23.468Z,100188.78
2023-03-20T23:42:30.630Z,100187.81
2023-03-20T23:47:43.889Z,100175.41
2023-03-20T23:52:57.225Z,100178.94
2023-03-20T23:58:02.764Z,100172.09
